Time;durP1;ratioP1;P1;durP2;ratioP2;P2;SDS_P1;SDS_P2;PMS_P1;PMS_P2;Temp;Humidity;BMP_temperature;BMP_pressure;BME280_temperature;BME280_humidity;BME280_pressure;Samples;Min_cycle;Max_cycle;Signal;HPM_P1;HPM_P2
2022/12/06 00:00:25;;;;;;;9.43;4.40;;;6.50;99.90;;;;;;5030832;28;20450;-75
2022/12/06 00:02:50;;;;;;;10.20;4.07;;;6.50;99.90;;;;;;5029652;28;20037;-76
2022/12/06 00:05:16;;;;;;;9.40;4.10;;;6.40;99.90;;;;;;5039894;28;20732;-75
2022/12/06 00:07:42;;;;;;;10.10;4.18;;;6.40;99.90;;;;;;5040010;28;20109;-77
2022/12/06 00:10:08;;;;;;;9.57;4.28;;;6.30;99.90;;;;;;5034981;28;20423;-76
2022/12/06 00:12:33;;;;;;;9.52;3.72;;;6.20;99.90;;;;;;5033852;28;20033;-76
2022/12/06 00:14:59;;;;;;;12.18;3.88;;;6.20;99.90;;;;;;5039236;28;20033;-78
2022/12/06 00:17:26;;;;;;;9.80;3.97;;;6.20;99.90;;;;;;5034069;28;20056;-78
2022/12/06 00:19:51;;;;;;;8.93;3.78;;;6.20;99.90;;;;;;5035290;28;20041;-76
2022/12/06 00:22:17;;;;;;;12.35;3.63;;;6.20;99.90;;;;;;5036654;28;20437;-77
2022/12/06 00:24:43;;;;;;;8.98;3.42;;;6.20;99.90;;;;;;5039540;28;20033;-77
2022/12/06 00:27:08;;;;;;;11.38;3.95;;;6.20;99.90;;;;;;5029218;28;20037;-75
2022/12/06 00:29:34;;;;;;;11.02;4.20;;;6.20;99.90;;;;;;5035371;28;20112;-77
2022/12/06 00:32:00;;;;;;;8.70;3.40;;;6.20;99.90;;;;;;5032678;28;20040;-75
2022/12/06 00:34:26;;;;;;;9.90;3.58;;;6.20;99.90;;;;;;5043933;28;20059;-76
2022/12/06 00:36:51;;;;;;;7.68;3.45;;;6.20;99.90;;;;;;5036414;28;20033;-77
2022/12/06 00:39:18;;;;;;;8.90;3.88;;;6.30;99.90;;;;;;5030383;28;20029;-77
2022/12/06 00:41:44;;;;;;;9.43;4.00;;;6.20;99.90;;;;;;5041855;28;20715;-78
2022/12/06 00:44:10;;;;;;;7.93;4.13;;;6.30;99.90;;;;;;5051883;28;20545;-76
2022/12/06 00:46:36;;;;;;;10.55;3.80;;;6.30;99.90;;;;;;5042157;28;20033;-76
2022/12/06 00:49:04;;;;;;;10.95;3.75;;;6.30;99.90;;;;;;5057091;28;20498;-77
2022/12/06 00:51:32;;;;;;;9.15;3.55;;;6.30;99.90;;;;;;5056274;28;20025;-76
2022/12/06 00:53:58;;;;;;;8.35;3.28;;;6.30;99.90;;;;;;5075821;28;20029;-76
2022/12/06 00:56:24;;;;;;;11.25;3.83;;;6.40;99.90;;;;;;5047575;28;20037;-78
2022/12/06 00:58:50;;;;;;;10.02;3.67;;;6.40;99.90;;;;;;5047765;28;20087;-78
2022/12/06 01:01:20;;;;;;;9.32;3.75;;;6.40;99.90;;;;;;5039520;28;20082;-75
2022/12/06 01:03:50;;;;;;;9.30;3.60;;;6.40;99.90;;;;;;5052476;28;20510;-76
2022/12/06 01:06:16;;;;;;;12.10;4.22;;;6.30;99.90;;;;;;5043320;28;20043;-77
2022/12/06 01:08:42;;;;;;;6.80;3.40;;;6.30;99.90;;;;;;5037936;28;20036;-77
2022/12/06 01:11:09;;;;;;;10.10;3.60;;;6.30;99.90;;;;;;5047310;28;20045;-78
2022/12/06 01:13:35;;;;;;;9.10;3.58;;;6.30;99.90;;;;;;5064730;28;20065;-78
2022/12/06 01:16:22;;;;;;;9.23;3.88;;;6.30;99.90;;;;;;5041425;28;20732;-76
2022/12/06 01:18:52;;;;;;;10.93;3.95;;;6.30;99.90;;;;;;5032958;28;20029;-79
2022/12/06 01:21:19;;;;;;;6.85;3.42;;;6.30;99.90;;;;;;5037290;28;20112;-77
2022/12/06 01:23:46;;;;;;;8.20;3.38;;;6.40;99.90;;;;;;5034033;28;20464;-76
2022/12/06 01:26:19;;;;;;;12.45;4.20;;;6.40;99.90;;;;;;5037325;28;20041;-77
2022/12/06 01:28:45;;;;;;;11.15;3.92;;;6.40;99.90;;;;;;5041009;28;20552;-76
2022/12/06 01:31:11;;;;;;;8.98;3.92;;;6.40;99.90;;;;;;5044102;28;20032;-76
2022/12/06 01:33:37;;;;;;;10.10;3.92;;;6.40;99.90;;;;;;5044413;28;20041;-77
2022/12/06 01:36:03;;;;;;;10.27;3.60;;;6.40;99.90;;;;;;5040937;28;20164;-76
2022/12/06 01:38:29;;;;;;;8.38;3.40;;;6.30;99.90;;;;;;5045340;28;20036;-78
2022/12/06 01:40:54;;;;;;;9.88;4.03;;;6.30;99.90;;;;;;5051858;28;20029;-75
2022/12/06 01:43:31;;;;;;;11.40;3.70;;;6.30;99.90;;;;;;5042423;28;20033;-77
2022/12/06 01:46:01;;;;;;;10.43;3.60;;;6.40;99.90;;;;;;5042300;28;20032;-77
2022/12/06 01:48:27;;;;;;;9.55;3.53;;;6.30;99.90;;;;;;5038367;28;20045;-77
2022/12/06 01:50:55;;;;;;;13.57;3.80;;;6.30;99.90;;;;;;5051068;28;20032;-76
2022/12/06 01:53:22;;;;;;;8.05;4.55;;;6.20;99.90;;;;;;5043755;28;20124;-75
2022/12/06 01:55:48;;;;;;;11.88;3.60;;;6.20;99.90;;;;;;5049989;28;20031;-76
2022/12/06 01:58:22;;;;;;;8.43;3.88;;;6.10;99.90;;;;;;5047215;28;20115;-77
2022/12/06 02:00:48;;;;;;;7.82;3.20;;;6.10;99.90;;;;;;5043323;28;20060;-78
2022/12/06 02:03:19;;;;;;;7.95;3.80;;;5.90;99.90;;;;;;5041189;28;20083;-75
2022/12/06 02:05:44;;;;;;;10.75;3.65;;;5.90;99.90;;;;;;5030238;28;20083;-78
2022/12/06 02:08:12;;;;;;;8.45;3.75;;;5.80;99.90;;;;;;5036772;28;20032;-78
2022/12/06 02:10:38;;;;;;;10.73;3.70;;;5.70;99.90;;;;;;5038974;28;20026;-76
2022/12/06 02:13:05;;;;;;;10.88;4.20;;;5.60;99.90;;;;;;5043408;28;20029;-76
2022/12/06 02:15:54;;;;;;;10.15;3.80;;;5.50;99.90;;;;;;5040138;28;20032;-77
2022/12/06 02:18:39;;;;;;;9.55;3.65;;;5.40;99.90;;;;;;5031615;28;20095;-76
2022/12/06 02:21:34;;;;;;;9.45;4.07;;;5.40;99.90;;;;;;5055161;28;20052;-76
2022/12/06 02:24:40;;;;;;;10.23;3.80;;;5.40;99.90;;;;;;5032247;28;20084;-77
2022/12/06 02:27:08;;;;;;;13.45;4.18;;;5.40;99.90;;;;;;5036829;28;20112;-78
2022/12/06 02:29:52;;;;;;;9.13;3.80;;;5.40;99.90;;;;;;5042087;28;20683;-78
2022/12/06 02:32:29;;;;;;;10.25;4.00;;;5.40;99.90;;;;;;5035749;28;20098;-79
2022/12/06 02:35:26;;;;;;;9.02;3.90;;;5.40;99.90;;;;;;5039459;28;20119;-76
2022/12/06 02:38:15;;;;;;;8.60;3.88;;;5.30;99.90;;;;;;5035450;28;20511;-78
2022/12/06 02:40:48;;;;;;;7.55;4.07;;;5.30;99.90;;;;;;5042367;28;20037;-76
2022/12/06 02:43:18;;;;;;;10.25;3.80;;;5.30;99.90;;;;;;5029024;28;20045;-77
2022/12/06 02:45:49;;;;;;;10.50;4.25;;;5.20;99.90;;;;;;5025602;28;20032;-77
2022/12/06 02:48:17;;;;;;;9.93;3.90;;;5.20;99.90;;;;;;5043614;28;20088;-79
2022/12/06 02:50:51;;;;;;;10.05;4.10;;;5.10;99.90;;;;;;5034814;28;20033;-76
2022/12/06 02:53:19;;;;;;;14.38;4.63;;;5.10;99.90;;;;;;5041154;28;20036;-75
2022/12/06 02:55:45;;;;;;;12.95;4.78;;;5.10;99.90;;;;;;5030040;28;20652;-77
2022/12/06 02:58:11;;;;;;;11.13;4.47;;;5.00;99.90;;;;;;5042001;28;20090;-76
2022/12/06 03:00:40;;;;;;;11.02;4.78;;;4.90;99.90;;;;;;5044627;28;20445;-76
2022/12/06 03:03:27;;;;;;;9.65;4.25;;;4.80;99.90;;;;;;5030523;28;20606;-77
2022/12/06 03:06:01;;;;;;;11.63;4.13;;;4.80;99.90;;;;;;5033870;28;20728;-75
2022/12/06 03:08:55;;;;;;;9.07;4.13;;;4.70;99.90;;;;;;5039450;28;20037;-76
2022/12/06 03:11:20;;;;;;;8.45;3.88;;;4.70;99.90;;;;;;5034293;28;21058;-75
2022/12/06 03:13:59;;;;;;;10.02;4.50;;;4.60;99.90;;;;;;5036691;28;20039;-77
2022/12/06 03:16:41;;;;;;;8.75;4.10;;;4.60;99.90;;;;;;5035688;28;20037;-75
2022/12/06 03:19:11;;;;;;;10.25;4.18;;;4.60;99.90;;;;;;5032373;28;20167;-76
2022/12/06 03:21:42;;;;;;;;;;;4.50;99.90;;;;;;5043320;28;20029;-76
2022/12/06 03:24:12;;;;;;;12.05;3.65;;;4.40;99.90;;;;;;5038231;28;19909;-77
2022/12/06 03:26:38;;;;;;;;;;;4.40;99.90;;;;;;5033882;28;20504;-77
2022/12/06 03:29:08;;;;;;;9.88;3.70;;;4.30;99.90;;;;;;5034990;28;19963;-77
2022/12/06 03:31:36;;;;;;;11.25;4.10;;;4.30;99.90;;;;;;5032881;28;20032;-75
2022/12/06 03:34:10;;;;;;;12.88;4.20;;;4.20;99.90;;;;;;5035576;28;20044;-76
2022/12/06 03:36:37;;;;;;;12.57;4.10;;;4.20;99.90;;;;;;5041433;28;20033;-77
2022/12/06 03:39:05;;;;;;;13.48;5.05;;;4.10;99.90;;;;;;5031904;28;20384;-77
2022/12/06 03:41:39;;;;;;;12.70;4.80;;;4.10;99.90;;;;;;5038170;28;20426;-77
2022/12/06 03:44:04;;;;;;;12.35;4.85;;;4.00;99.90;;;;;;5044683;28;20033;-76
2022/12/06 03:46:34;;;;;;;11.95;4.47;;;4.00;99.90;;;;;;5035069;28;20025;-76
2022/12/06 03:49:18;;;;;;;10.63;4.17;;;4.00;99.90;;;;;;5038506;28;20561;-77
2022/12/06 03:51:44;;;;;;;13.07;4.90;;;4.00;99.90;;;;;;5039715;28;20056;-78
2022/12/06 03:54:10;;;;;;;11.75;4.40;;;4.00;99.90;;;;;;5048657;28;20029;-78
2022/12/06 03:56:37;;;;;;;9.98;4.53;;;3.90;99.90;;;;;;5032614;28;20042;-78
2022/12/06 03:59:06;;;;;;;11.43;4.88;;;3.90;99.90;;;;;;5037990;28;20478;-77
2022/12/06 04:01:32;;;;;;;10.15;3.95;;;3.80;99.90;;;;;;5063648;28;20116;-78
2022/12/06 04:03:58;;;;;;;10.20;4.32;;;3.80;99.90;;;;;;5042085;28;20457;-77
2022/12/06 04:06:24;;;;;;;9.00;4.10;;;3.90;99.90;;;;;;5034755;28;20037;-76
2022/12/06 04:08:49;;;;;;;11.82;4.40;;;3.90;99.90;;;;;;5045203;28;20518;-77
2022/12/06 04:11:15;;;;;;;12.00;4.45;;;3.80;99.90;;;;;;5042070;28;20556;-78
2022/12/06 04:13:41;;;;;;;10.25;4.55;;;3.80;99.90;;;;;;5041450;28;20468;-77
2022/12/06 04:18:09;;;;;;;8.30;4.15;;;3.80;99.90;;;;;;5040101;28;20056;-76
2022/12/06 04:18:54;;;;;;;11.48;4.35;;;3.80;99.90;;;;;;5036857;28;20489;-77
2022/12/06 04:23:57;;;;;;;12.88;4.57;;;3.70;99.90;;;;;;5046406;28;20112;-77
2022/12/06 04:26:23;;;;;;;10.10;4.65;;;3.70;99.90;;;;;;5040427;28;20065;-77
2022/12/06 04:39:49;;;;;;;9.48;4.45;;;3.60;99.90;;;;;;5042829;28;20606;-76
2022/12/06 04:44:59;;;;;;;12.90;5.05;;;3.60;99.90;;;;;;5035642;28;20605;-75
2022/12/06 04:47:25;;;;;;;12.18;4.45;;;3.60;99.90;;;;;;5038659;28;20056;-77
2022/12/06 04:49:51;;;;;;;15.05;4.97;;;3.60;99.90;;;;;;5033049;28;20053;-75
2022/12/06 04:52:17;;;;;;;11.48;4.85;;;3.60;99.90;;;;;;5037890;28;20448;-76
2022/12/06 04:54:42;;;;;;;10.52;4.55;;;3.60;99.90;;;;;;5046103;28;20036;-77
2022/12/06 04:57:11;;;;;;;12.50;4.47;;;3.60;99.90;;;;;;5035533;28;20133;-77
2022/12/06 04:59:39;;;;;;;12.43;4.82;;;3.60;99.90;;;;;;5032174;28;20045;-77
2022/12/06 05:02:05;;;;;;;11.20;4.15;;;3.60;99.90;;;;;;5035775;28;20075;-76
2022/12/06 05:04:31;;;;;;;13.90;5.53;;;3.60;99.90;;;;;;5041732;28;20043;-78
2022/12/06 05:06:57;;;;;;;10.52;4.35;;;3.60;99.90;;;;;;5035575;28;20032;-78
2022/12/06 05:09:24;;;;;;;12.50;4.85;;;3.60;99.90;;;;;;5039392;28;20098;-77
2022/12/06 05:11:49;;;;;;;13.65;4.47;;;3.60;99.90;;;;;;5041597;28;20076;-76
2022/12/06 05:14:15;;;;;;;12.02;4.30;;;3.50;99.90;;;;;;5036484;28;21849;-77
2022/12/06 05:16:40;;;;;;;10.68;4.32;;;3.50;99.90;;;;;;5049902;28;20033;-76
2022/12/06 05:19:06;;;;;;;11.68;4.60;;;3.60;99.90;;;;;;5031050;28;20198;-80
2022/12/06 05:21:32;;;;;;;16.45;6.05;;;3.50;99.90;;;;;;5032270;28;20037;-76
2022/12/06 05:23:58;;;;;;;10.30;3.88;;;3.50;99.90;;;;;;5045385;28;20960;-75
2022/12/06 05:26:27;;;;;;;8.93;5.45;;;3.40;99.90;;;;;;5051615;28;20079;-76
2022/12/06 05:28:53;;;;;;;12.32;4.82;;;3.40;99.90;;;;;;5031903;28;20083;-76
2022/12/06 05:31:20;;;;;;;10.40;4.50;;;3.30;99.90;;;;;;5040631;28;20024;-76
2022/12/06 05:33:46;;;;;;;11.55;5.03;;;3.30;99.90;;;;;;5039871;28;20021;-75
2022/12/06 05:36:21;;;;;;;13.98;4.90;;;3.30;99.90;;;;;;5043740;28;20092;-76
2022/12/06 05:38:47;;;;;;;10.32;4.20;;;3.30;99.90;;;;;;5030520;28;20467;-75
2022/12/06 05:41:13;;;;;;;11.07;4.93;;;3.30;99.90;;;;;;5029359;28;20095;-76
2022/12/06 05:43:39;;;;;;;10.25;4.40;;;3.30;99.90;;;;;;5031447;28;20037;-77
2022/12/06 05:46:04;;;;;;;10.10;4.75;;;3.30;99.90;;;;;;5037134;28;20099;-75
2022/12/06 05:48:31;;;;;;;11.60;4.78;;;3.30;99.90;;;;;;5040129;28;20104;-75
2022/12/06 05:50:56;;;;;;;9.23;4.30;;;3.30;99.90;;;;;;5037998;28;20029;-76
2022/12/06 05:53:22;;;;;;;11.75;4.40;;;3.30;99.90;;;;;;5038205;28;20044;-76
2022/12/06 05:55:48;;;;;;;13.52;4.88;;;3.30;99.90;;;;;;5037551;28;20025;-77
2022/12/06 05:58:14;;;;;;;9.95;4.43;;;3.30;99.90;;;;;;5045384;28;20116;-78
2022/12/06 06:00:40;;;;;;;13.27;5.20;;;3.30;99.90;;;;;;5039071;28;20021;-76
2022/12/06 06:03:06;;;;;;;11.95;4.60;;;3.20;99.90;;;;;;5058900;28;20554;-74
2022/12/06 06:05:32;;;;;;;11.98;5.28;;;3.20;99.90;;;;;;5041488;28;20036;-76
2022/12/06 06:07:57;;;;;;;11.98;4.63;;;3.20;99.90;;;;;;5037199;28;20033;-77
2022/12/06 06:10:24;;;;;;;11.68;4.70;;;3.10;99.90;;;;;;5031945;28;20120;-77
2022/12/06 06:12:50;;;;;;;9.35;4.45;;;3.10;99.90;;;;;;5053201;28;20028;-75
2022/12/06 06:15:16;;;;;;;12.50;5.72;;;3.00;99.90;;;;;;5031527;28;20036;-77
2022/12/06 06:17:42;;;;;;;11.30;4.55;;;2.90;99.90;;;;;;5037559;28;20033;-76
2022/12/06 06:20:09;;;;;;;14.00;4.60;;;2.90;99.90;;;;;;5044652;28;20029;-76
2022/12/06 06:22:37;;;;;;;14.63;5.40;;;2.90;99.90;;;;;;5041709;28;20111;-75
2022/12/06 06:25:04;;;;;;;10.73;4.40;;;2.90;99.90;;;;;;5046608;28;20506;-74
2022/12/06 06:27:36;;;;;;;13.95;4.57;;;2.80;99.90;;;;;;5040329;28;20041;-76
2022/12/06 06:30:07;;;;;;;16.17;5.45;;;2.80;99.90;;;;;;5029311;28;20032;-74
2022/12/06 06:32:33;;;;;;;11.40;4.57;;;2.80;99.90;;;;;;5039941;28;20032;-76
2022/12/06 06:34:59;;;;;;;13.50;5.25;;;2.80;99.90;;;;;;5048490;28;20035;-77
2022/12/06 06:37:24;;;;;;;11.23;4.47;;;2.70;99.90;;;;;;5031756;28;20041;-76
2022/12/06 06:39:50;;;;;;;11.55;4.30;;;2.70;99.90;;;;;;5040057;28;20076;-76
2022/12/06 06:42:16;;;;;;;13.10;5.00;;;2.70;99.90;;;;;;5041366;28;20033;-77
2022/12/06 06:44:42;;;;;;;12.23;4.93;;;2.70;99.90;;;;;;5051217;28;20044;-78
2022/12/06 06:47:08;;;;;;;12.40;4.55;;;2.70;99.90;;;;;;5043878;28;20045;-78
2022/12/06 06:49:34;;;;;;;9.77;4.40;;;2.70;99.90;;;;;;5034776;28;20052;-77
2022/12/06 06:51:59;;;;;;;9.65;4.20;;;2.70;99.90;;;;;;5033421;28;20120;-76
2022/12/06 06:54:26;;;;;;;10.13;4.65;;;2.80;99.90;;;;;;5051228;28;20045;-77
2022/12/06 06:56:55;;;;;;;13.32;5.32;;;2.80;99.90;;;;;;5048163;28;20406;-77
2022/12/06 06:59:21;;;;;;;13.00;4.85;;;2.80;99.90;;;;;;5029578;28;20079;-78
2022/12/06 07:01:46;;;;;;;12.40;4.70;;;2.80;99.90;;;;;;5033853;28;20052;-75
2022/12/06 07:04:12;;;;;;;11.20;4.85;;;2.90;99.90;;;;;;5030858;28;20082;-77
2022/12/06 07:06:38;;;;;;;9.50;4.55;;;2.90;99.90;;;;;;5027335;28;20029;-77
2022/12/06 07:09:03;;;;;;;11.68;5.28;;;2.90;99.90;;;;;;5038576;28;20154;-77
2022/12/06 07:11:29;;;;;;;14.93;6.38;;;2.90;99.90;;;;;;5042038;28;20025;-77
2022/12/06 07:13:54;;;;;;;15.57;6.43;;;3.00;99.90;;;;;;5041683;28;20036;-76
2022/12/06 07:16:20;;;;;;;14.68;5.70;;;3.00;99.90;;;;;;5029171;28;20048;-76
2022/12/06 07:18:46;;;;;;;13.13;5.68;;;3.10;99.90;;;;;;5032349;28;20045;-77
2022/12/06 07:21:14;;;;;;;12.93;5.80;;;3.10;99.90;;;;;;5039755;28;20028;-76
2022/12/06 07:23:39;;;;;;;13.23;6.05;;;3.10;99.90;;;;;;5036703;28;20087;-77
2022/12/06 07:26:17;;;;;;;16.15;6.35;;;3.10;99.90;;;;;;5038609;28;20529;-78
2022/12/06 07:28:44;;;;;;;14.68;6.03;;;3.00;99.90;;;;;;5063148;28;20137;-78
2022/12/06 07:31:21;;;;;;;14.55;6.00;;;3.00;99.90;;;;;;5043318;28;20025;-77
2022/12/06 07:33:50;;;;;;;16.17;6.20;;;3.00;99.90;;;;;;5036416;28;20036;-77
2022/12/06 07:36:16;;;;;;;12.60;6.78;;;3.00;99.90;;;;;;5030081;28;20037;-77
2022/12/06 07:38:45;;;;;;;17.52;6.93;;;3.00;99.90;;;;;;5033533;28;20030;-75
2022/12/06 07:46:42;;;;;;;12.88;6.25;;;2.90;99.90;;;;;;5070955;28;20039;-76
2022/12/06 07:49:09;;;;;;;15.43;6.50;;;2.90;99.90;;;;;;5056983;28;20492;-77
2022/12/06 07:51:34;;;;;;;16.40;6.88;;;2.90;99.90;;;;;;5039774;28;20024;-76
2022/12/06 07:54:01;;;;;;;15.82;7.35;;;2.90;99.90;;;;;;5042928;28;20033;-75
2022/12/06 07:56:26;;;;;;;14.07;6.32;;;2.90;99.90;;;;;;5043581;28;20036;-75
2022/12/06 07:58:52;;;;;;;13.38;6.53;;;3.00;99.90;;;;;;5043961;28;20044;-76
2022/12/06 08:01:18;;;;;;;13.48;6.22;;;3.00;99.90;;;;;;5059706;28;20045;-75
2022/12/06 08:03:44;;;;;;;16.23;7.20;;;3.00;99.90;;;;;;5031066;28;20391;-75
2022/12/06 08:06:09;;;;;;;16.42;7.43;;;3.00;99.90;;;;;;5036667;28;20414;-76
2022/12/06 08:08:35;;;;;;;15.23;6.82;;;3.00;99.90;;;;;;5034346;28;20103;-75
2022/12/06 08:11:05;;;;;;;15.27;6.63;;;3.10;99.90;;;;;;5042660;28;20033;-75
2022/12/06 08:13:31;;;;;;;;;;;3.10;99.90;;;;;;5042075;28;20040;-76
2022/12/06 08:15:57;;;;;;;15.48;6.22;;;3.00;99.90;;;;;;5040197;28;20367;-77
2022/12/06 08:18:24;;;;;;;14.55;6.53;;;3.00;99.90;;;;;;5039200;28;20094;-77
2022/12/06 08:20:51;;;;;;;13.27;7.22;;;3.10;99.90;;;;;;5042771;28;20033;-77
2022/12/06 08:23:17;;;;;;;17.25;6.68;;;3.10;99.90;;;;;;5062707;28;20028;-78
2022/12/06 08:25:43;;;;;;;15.32;7.05;;;3.10;99.90;;;;;;5050154;28;20051;-79
2022/12/06 08:28:08;;;;;;;11.30;5.60;;;3.10;99.90;;;;;;5066290;28;20591;-76
2022/12/06 08:30:38;;;;;;;15.93;5.93;;;3.20;99.90;;;;;;5044927;28;20033;-79
2022/12/06 08:33:03;;;;;;;14.68;5.10;;;3.20;99.90;;;;;;5060727;28;20131;-79
2022/12/06 08:35:29;;;;;;;15.38;5.75;;;3.30;99.90;;;;;;5060305;28;20123;-79
2022/12/06 08:37:54;;;;;;;13.25;5.75;;;3.30;99.90;;;;;;5062804;28;20040;-77
2022/12/06 08:40:20;;;;;;;15.05;6.20;;;3.40;99.90;;;;;;5059583;28;20037;-78
2022/12/06 08:42:45;;;;;;;15.57;5.22;;;3.40;99.90;;;;;;5057504;28;20033;-77
2022/12/06 08:45:11;;;;;;;14.35;5.40;;;3.50;99.90;;;;;;5067350;28;20080;-78
2022/12/06 08:47:37;;;;;;;14.13;4.80;;;3.50;99.90;;;;;;5042818;28;20040;-79
2022/12/06 08:50:03;;;;;;;14.20;5.20;;;3.70;99.90;;;;;;5051842;28;20064;-78
2022/12/06 08:52:29;;;;;;;11.60;4.10;;;3.70;99.90;;;;;;5036410;28;20045;-79
2022/12/06 08:54:55;;;;;;;9.82;4.15;;;3.80;99.90;;;;;;5042236;28;20033;-78
2022/12/06 08:57:20;;;;;;;13.13;4.53;;;3.80;99.90;;;;;;5055371;28;20845;-77
2022/12/06 08:59:46;;;;;;;11.65;5.75;;;3.90;99.90;;;;;;5057230;28;20115;-79
2022/12/06 09:02:12;;;;;;;9.55;4.38;;;4.00;99.90;;;;;;5033500;28;20030;-78
2022/12/06 09:04:37;;;;;;;12.77;5.47;;;4.20;99.90;;;;;;5036521;28;20040;-78
2022/12/06 09:07:03;;;;;;;11.32;4.30;;;4.40;99.90;;;;;;5031276;28;20464;-78
2022/12/06 09:09:29;;;;;;;10.52;4.50;;;4.70;99.90;;;;;;5047448;28;20036;-78
2022/12/06 09:11:54;;;;;;;9.70;4.13;;;4.90;99.90;;;;;;5063598;28;20564;-79
2022/12/06 09:14:20;;;;;;;8.63;3.80;;;5.20;99.90;;;;;;5067641;28;20028;-79
2022/12/06 09:16:46;;;;;;;8.65;3.55;;;5.70;99.90;;;;;;5054375;28;20037;-78
2022/12/06 09:19:12;;;;;;;8.80;3.15;;;6.10;99.90;;;;;;5032362;28;20480;-78
2022/12/06 09:21:41;;;;;;;8.63;3.33;;;6.60;99.90;;;;;;5047084;28;20034;-79
2022/12/06 09:24:13;;;;;;;7.05;2.80;;;6.90;99.90;;;;;;5039329;28;20025;-78
2022/12/06 09:26:39;;;;;;;8.07;3.03;;;7.30;99.90;;;;;;5048432;28;20529;-79
2022/12/06 09:29:05;;;;;;;9.80;2.60;;;7.60;99.90;;;;;;5048143;28;20040;-78
2022/12/06 09:31:31;;;;;;;7.53;2.15;;;8.00;99.90;;;;;;5063409;28;20040;-78
2022/12/06 09:33:57;;;;;;;7.57;2.05;;;8.30;99.90;;;;;;5063305;28;20037;-78
2022/12/06 09:36:30;;;;;;;6.15;1.98;;;9.20;99.90;;;;;;5034445;28;20471;-77
2022/12/06 09:39:07;;;;;;;6.13;1.85;;;9.80;99.90;;;;;;5023195;28;20155;-77
2022/12/06 09:41:50;;;;;;;5.55;1.90;;;9.90;99.90;;;;;;5042779;28;20064;-76
2022/12/06 09:44:49;;;;;;;5.53;1.40;;;9.60;99.90;;;;;;5034092;28;20017;-76
2022/12/06 09:47:46;;;;;;;5.80;1.70;;;9.10;99.90;;;;;;5046842;28;20025;-76
2022/12/06 09:50:22;;;;;;;6.30;1.70;;;8.60;99.90;;;;;;5055193;28;20029;-76
2022/12/06 09:53:13;;;;;;;5.55;2.00;;;8.20;99.90;;;;;;5068200;28;20502;-74
2022/12/06 09:55:59;;;;;;;6.28;1.77;;;7.80;99.90;;;;;;5045159;28;20026;-75
2022/12/06 09:58:51;;;;;;;8.05;1.90;;;7.40;99.90;;;;;;5044359;28;20039;-75
2022/12/06 10:01:38;;;;;;;6.30;2.00;;;7.10;99.90;;;;;;5040981;28;20047;-75
2022/12/06 10:04:40;;;;;;;5.30;1.65;;;7.00;99.90;;;;;;5063458;28;20028;-75
2022/12/06 10:07:23;;;;;;;3.40;1.00;;;6.90;99.90;;;;;;5067088;28;20094;-74
2022/12/06 10:10:11;;;;;;;4.93;1.30;;;7.00;99.90;;;;;;5064681;28;20025;-75
2022/12/06 10:12:57;;;;;;;3.30;1.42;;;7.20;99.90;;;;;;5043572;28;20087;-75
2022/12/06 10:15:39;;;;;;;4.07;1.33;;;7.30;99.90;;;;;;5027344;28;20042;-76
2022/12/06 10:18:20;;;;;;;7.40;2.13;;;7.20;99.90;;;;;;5046000;28;20032;-76
2022/12/06 10:20:52;;;;;;;4.97;1.23;;;7.20;99.90;;;;;;5062104;28;20482;-75
2022/12/06 10:23:17;;;;;;;6.15;1.58;;;7.40;99.90;;;;;;5065158;28;20064;-76
2022/12/06 10:25:55;;;;;;;4.40;1.40;;;7.20;99.90;;;;;;5059344;28;20102;-75
2022/12/06 10:28:47;;;;;;;5.90;1.20;;;7.20;99.90;;;;;;5066788;28;20036;-76
2022/12/06 10:31:22;;;;;;;5.93;1.60;;;7.30;99.90;;;;;;5045102;28;20093;-75
2022/12/06 10:33:59;;;;;;;3.72;1.15;;;7.40;99.90;;;;;;5031184;28;20022;-75
2022/12/06 10:37:01;;;;;;;4.65;1.52;;;7.50;99.90;;;;;;5037232;28;20104;-75
2022/12/06 10:39:38;;;;;;;6.07;1.98;;;7.70;99.90;;;;;;5033348;28;20045;-75
2022/12/06 10:42:21;;;;;;;5.95;1.48;;;7.90;99.90;;;;;;5046966;28;20063;-75
2022/12/06 10:44:54;;;;;;;6.68;1.70;;;8.00;99.90;;;;;;5044850;28;20048;-77
2022/12/06 10:47:30;;;;;;;3.47;1.17;;;8.20;99.90;;;;;;5037246;28;20155;-75
2022/12/06 10:50:06;;;;;;;9.43;1.52;;;8.50;99.90;;;;;;5032551;28;20118;-75
2022/12/06 10:52:47;;;;;;;5.88;1.60;;;8.30;99.90;;;;;;5035437;28;20038;-75
2022/12/06 10:55:18;;;;;;;7.82;1.42;;;8.30;99.90;;;;;;5044460;28;20048;-75
2022/12/06 10:57:47;;;;;;;4.78;1.20;;;8.60;99.90;;;;;;5031238;28;20033;-74
2022/12/06 11:00:19;;;;;;;6.15;1.42;;;8.90;99.90;;;;;;5029589;28;20037;-74
2022/12/06 11:03:03;;;;;;;4.10;1.38;;;8.90;99.90;;;;;;5040600;28;20419;-76
2022/12/06 11:06:04;;;;;;;6.32;1.45;;;8.80;99.90;;;;;;5034195;28;20033;-75
2022/12/06 11:08:53;;;;;;;4.05;1.23;;;8.60;99.90;;;;;;5025511;28;20506;-75
2022/12/06 11:11:32;;;;;;;4.00;1.65;;;8.30;99.90;;;;;;5025213;28;20028;-75
2022/12/06 11:14:10;;;;;;;5.55;1.35;;;8.10;99.90;;;;;;5046993;28;20036;-75
2022/12/06 11:16:40;;;;;;;5.68;1.33;;;7.90;99.90;;;;;;5054217;28;20021;-75
2022/12/06 11:19:27;;;;;;;7.30;1.60;;;7.90;99.90;;;;;;5040956;28;20029;-76
2022/12/06 11:22:38;;;;;;;3.50;1.10;;;7.80;99.90;;;;;;5025507;28;20499;-75
2022/12/06 11:25:35;;;;;;;10.98;1.65;;;7.80;99.90;;;;;;5020841;28;20046;-74
2022/12/06 11:28:20;;;;;;;8.63;2.42;;;7.80;99.90;;;;;;5030612;28;20041;-73
2022/12/06 11:30:48;;;;;;;5.38;1.77;;;7.80;99.90;;;;;;5044463;28;20033;-74
2022/12/06 11:33:14;;;;;;;6.05;1.80;;;7.70;99.90;;;;;;5048170;28;20066;-74
2022/12/06 11:35:42;;;;;;;5.40;1.88;;;7.70;99.90;;;;;;5057098;28;20106;-74
2022/12/06 11:38:07;;;;;;;4.75;1.60;;;7.60;99.90;;;;;;5029905;28;20556;-75
2022/12/06 11:40:35;;;;;;;6.75;2.00;;;7.50;99.90;;;;;;5024849;28;20041;-76
2022/12/06 11:43:05;;;;;;;9.82;1.98;;;7.50;99.90;;;;;;5025244;28;20111;-74
2022/12/06 11:45:38;;;;;;;5.60;2.10;;;7.50;99.90;;;;;;5046797;28;20036;-76
2022/12/06 11:48:17;;;;;;;4.07;1.48;;;7.50;99.90;;;;;;5064875;28;20108;-75
2022/12/06 11:50:44;;;;;;;6.15;1.88;;;7.40;99.90;;;;;;5044786;28;20029;-75
2022/12/06 11:53:32;;;;;;;6.53;1.85;;;7.40;99.90;;;;;;5044599;28;20052;-74
2022/12/06 11:56:05;;;;;;;5.78;1.98;;;7.30;99.90;;;;;;5055043;28;20028;-74
2022/12/06 11:58:43;;;;;;;7.53;2.33;;;7.30;99.90;;;;;;5043358;28;20040;-74
2022/12/06 12:01:13;;;;;;;12.13;3.47;;;7.30;99.90;;;;;;5026104;28;20040;-75
2022/12/06 12:03:44;;;;;;;7.60;2.53;;;7.30;99.90;;;;;;5026354;28;20037;-75
2022/12/06 12:06:26;;;;;;;11.13;3.50;;;7.40;99.90;;;;;;5052260;28;20039;-74
2022/12/06 12:08:58;;;;;;;8.88;3.13;;;7.50;99.90;;;;;;5044870;28;20036;-74
2022/12/06 12:11:30;;;;;;;5.82;1.88;;;7.70;99.90;;;;;;5045862;28;20043;-74
2022/12/06 12:14:03;;;;;;;7.60;2.03;;;7.90;99.90;;;;;;5024798;28;20021;-75
2022/12/06 12:16:31;;;;;;;6.78;2.17;;;8.00;99.90;;;;;;5044324;28;20111;-75
2022/12/06 12:18:58;;;;;;;9.20;2.03;;;8.10;99.90;;;;;;5055803;28;20043;-75
2022/12/06 12:21:40;;;;;;;6.00;1.70;;;8.30;99.90;;;;;;5064691;28;20051;-76
2022/12/06 12:24:40;;;;;;;9.45;1.88;;;8.40;99.90;;;;;;5034152;28;20037;-74
2022/12/06 12:27:30;;;;;;;5.88;2.42;;;8.50;99.90;;;;;;5037548;28;20067;-75
2022/12/06 12:30:26;;;;;;;7.43;3.10;;;8.50;99.90;;;;;;5038715;28;20088;-74
2022/12/06 12:33:14;;;;;;;7.93;2.40;;;8.60;99.90;;;;;;5041519;28;20441;-75
2022/12/06 12:35:45;;;;;;;4.93;2.17;;;8.70;99.90;;;;;;5053093;28;20129;-76
2022/12/06 12:38:16;;;;;;;6.72;3.10;;;8.70;99.90;;;;;;5077150;28;20515;-76
2022/12/06 12:40:46;;;;;;;4.22;2.00;;;8.70;99.90;;;;;;5041203;28;20036;-77
2022/12/06 12:43:11;;;;;;;6.00;1.77;;;8.60;99.90;;;;;;5038109;28;20463;-76
2022/12/06 12:46:09;;;;;;;5.38;2.30;;;8.60;99.90;;;;;;5051795;28;20036;-75
2022/12/06 12:48:36;;;;;;;4.05;1.70;;;8.50;99.90;;;;;;5045143;28;20048;-74
2022/12/06 12:51:22;;;;;;;6.60;1.65;;;8.60;99.90;;;;;;5034533;28;20021;-74
2022/12/06 12:53:57;;;;;;;6.13;1.70;;;8.60;99.90;;;;;;5055023;28;20115;-74
2022/12/06 12:56:22;;;;;;;4.78;1.95;;;8.60;99.90;;;;;;5045118;28;20039;-74
2022/12/06 12:58:53;;;;;;;4.00;1.33;;;8.70;99.90;;;;;;5028686;28;20041;-75
2022/12/06 13:01:29;;;;;;;5.60;1.75;;;9.10;99.90;;;;;;5052562;28;20060;-74
2022/12/06 13:04:24;;;;;;;5.72;1.80;;;9.50;99.90;;;;;;5047798;28;20040;-74
2022/12/06 13:06:58;;;;;;;5.95;1.77;;;9.60;99.90;;;;;;5047065;28;20040;-73
2022/12/06 13:10:05;;;;;;;4.28;1.65;;;9.60;99.90;;;;;;5053850;28;20051;-74
2022/12/06 13:12:46;;;;;;;4.90;1.55;;;10.90;98.40;;;;;;4998725;28;20500;-75
2022/12/06 13:15:15;;;;;;;5.13;1.50;;;11.70;92.50;;;;;;5002918;28;20041;-75
2022/12/06 13:17:44;;;;;;;7.90;2.20;;;11.90;90.90;;;;;;5023256;28;20045;-74
2022/12/06 13:20:24;;;;;;;9.80;2.03;;;11.10;92.00;;;;;;5054654;28;20277;-76
2022/12/06 13:23:01;;;;;;;8.32;1.92;;;10.20;94.20;;;;;;5048958;28;20029;-74
2022/12/06 13:25:27;;;;;;;6.57;2.28;;;9.70;97.90;;;;;;5035794;28;20047;-75
2022/12/06 13:27:57;;;;;;;3.50;1.50;;;9.40;99.80;;;;;;5043874;28;20453;-74
2022/12/06 13:30:25;;;;;;;5.47;2.33;;;9.20;99.90;;;;;;5061339;28;20037;-75
2022/12/06 13:32:57;;;;;;;6.40;2.33;;;9.10;99.90;;;;;;5068280;28;20040;-73
2022/12/06 13:35:55;;;;;;;5.30;1.90;;;9.00;99.90;;;;;;5066807;28;20070;-74